sensor_id;sensor_type;location;lat;lon;timestamp;temperature;humidity
39103;DHT22;24847;48.218;16.414;2023-04-08T00:05:17;4.50;99.90
39103;DHT22;24847;48.218;16.414;2023-04-08T00:10:41;4.20;99.90
39103;DHT22;24847;48.218;16.414;2023-04-08T00:16:04;4.20;99.90
39103;DHT22;24847;48.218;16.414;2023-04-08T00:21:27;4.20;99.90
39103;DHT22;24847;48.218;16.414;2023-04-08T00:26:52;4.10;99.90
39103;DHT22;24847;48.218;16.414;2023-04-08T00:32:16;4.10;99.90
39103;DHT22;24847;48.218;16.414;2023-04-08T00:37:39;4.20;99.90
39103;DHT22;24847;48.218;16.414;2023-04-08T00:43:03;4.00;99.90
39103;DHT22;24847;48.218;16.414;2023-04-08T00:48:25;3.90;99.90
39103;DHT22;24847;48.218;16.414;2023-04-08T00:53:47;3.80;99.90
39103;DHT22;24847;48.218;16.414;2023-04-08T00:59:11;3.80;99.90
39103;DHT22;24847;48.218;16.414;2023-04-08T01:04:42;3.60;99.90
39103;DHT22;24847;48.218;16.414;2023-04-08T01:10:16;3.70;99.90
39103;DHT22;24847;48.218;16.414;2023-04-08T01:15:41;3.60;99.90
39103;DHT22;24847;48.218;16.414;2023-04-08T01:21:06;3.60;99.90
39103;DHT22;24847;48.218;16.414;2023-04-08T01:26:30;3.50;99.90
39103;DHT22;24847;48.218;16.414;2023-04-08T01:31:54;3.60;99.90
39103;DHT22;24847;48.218;16.414;2023-04-08T01:37:18;3.40;99.90
39103;DHT22;24847;48.218;16.414;2023-04-08T01:42:43;3.50;99.90
39103;DHT22;24847;48.218;16.414;2023-04-08T01:48:06;3.60;99.90
39103;DHT22;24847;48.218;16.414;2023-04-08T01:53:29;3.30;99.90
39103;DHT22;24847;48.218;16.414;2023-04-08T01:58:54;3.30;99.90
39103;DHT22;24847;48.218;16.414;2023-04-08T02:04:18;3.10;99.90
39103;DHT22;24847;48.218;16.414;2023-04-08T02:09:41;3.20;99.90
39103;DHT22;24847;48.218;16.414;2023-04-08T02:15:05;3.00;99.90
39103;DHT22;24847;48.218;16.414;2023-04-08T02:20:33;3.00;99.90
39103;DHT22;24847;48.218;16.414;2023-04-08T02:25:59;2.80;99.90
39103;DHT22;24847;48.218;16.414;2023-04-08T02:31:25;2.90;99.90
39103;DHT22;24847;48.218;16.414;2023-04-08T02:36:47;2.70;99.90
39103;DHT22;24847;48.218;16.414;2023-04-08T02:42:11;2.60;99.90
39103;DHT22;24847;48.218;16.414;2023-04-08T02:47:34;2.40;99.90
39103;DHT22;24847;48.218;16.414;2023-04-08T02:52:57;2.50;99.90
39103;DHT22;24847;48.218;16.414;2023-04-08T02:58:19;2.40;99.90
39103;DHT22;24847;48.218;16.414;2023-04-08T03:03:43;2.30;99.90
39103;DHT22;24847;48.218;16.414;2023-04-08T03:09:05;2.20;99.90
39103;DHT22;24847;48.218;16.414;2023-04-08T03:14:28;2.20;99.90
39103;DHT22;24847;48.218;16.414;2023-04-08T03:19:52;2.20;99.90
39103;DHT22;24847;48.218;16.414;2023-04-08T03:25:14;2.10;99.90
39103;DHT22;24847;48.218;16.414;2023-04-08T03:30:37;2.00;99.90
39103;DHT22;24847;48.218;16.414;2023-04-08T03:36:00;1.90;99.90
39103;DHT22;24847;48.218;16.414;2023-04-08T03:41:23;2.10;99.90
39103;DHT22;24847;48.218;16.414;2023-04-08T03:46:45;2.00;99.90
39103;DHT22;24847;48.218;16.414;2023-04-08T03:52:09;2.00;99.90
39103;DHT22;24847;48.218;16.414;2023-04-08T03:57:32;2.10;99.90
39103;DHT22;24847;48.218;16.414;2023-04-08T04:02:54;1.90;99.90
39103;DHT22;24847;48.218;16.414;2023-04-08T04:08:18;1.70;99.90
39103;DHT22;24847;48.218;16.414;2023-04-08T04:13:40;1.80;99.90
39103;DHT22;24847;48.218;16.414;2023-04-08T04:19:03;2.00;99.90
39103;DHT22;24847;48.218;16.414;2023-04-08T04:24:26;2.20;99.90
39103;DHT22;24847;48.218;16.414;2023-04-08T04:29:49;2.30;99.90
39103;DHT22;24847;48.218;16.414;2023-04-08T04:35:12;2.60;99.90
39103;DHT22;24847;48.218;16.414;2023-04-08T04:40:35;2.40;99.90
39103;DHT22;24847;48.218;16.414;2023-04-08T04:45:58;2.60;99.90
39103;DHT22;24847;48.218;16.414;2023-04-08T04:51:20;2.60;99.90
39103;DHT22;24847;48.218;16.414;2023-04-08T04:56:44;2.30;99.90
39103;DHT22;24847;48.218;16.414;2023-04-08T05:02:07;2.50;99.90
39103;DHT22;24847;48.218;16.414;2023-04-08T05:07:29;2.40;99.90
39103;DHT22;24847;48.218;16.414;2023-04-08T05:12:53;2.50;99.90
39103;DHT22;24847;48.218;16.414;2023-04-08T05:18:15;2.40;99.90
39103;DHT22;24847;48.218;16.414;2023-04-08T05:23:38;2.40;99.90
39103;DHT22;24847;48.218;16.414;2023-04-08T05:29:02;2.50;99.90
39103;DHT22;24847;48.218;16.414;2023-04-08T05:34:24;2.60;99.90
39103;DHT22;24847;48.218;16.414;2023-04-08T05:39:46;2.40;99.90
39103;DHT22;24847;48.218;16.414;2023-04-08T05:45:10;2.60;99.90
39103;DHT22;24847;48.218;16.414;2023-04-08T05:50:34;2.40;99.90
39103;DHT22;24847;48.218;16.414;2023-04-08T05:55:57;2.70;99.90
39103;DHT22;24847;48.218;16.414;2023-04-08T06:01:20;2.40;99.90
39103;DHT22;24847;48.218;16.414;2023-04-08T06:06:43;2.50;99.90
39103;DHT22;24847;48.218;16.414;2023-04-08T06:12:05;2.60;99.90
39103;DHT22;24847;48.218;16.414;2023-04-08T06:17:29;2.60;99.90
39103;DHT22;24847;48.218;16.414;2023-04-08T06:22:51;2.40;99.90
39103;DHT22;24847;48.218;16.414;2023-04-08T06:28:14;2.50;99.90
39103;DHT22;24847;48.218;16.414;2023-04-08T06:33:38;2.60;99.90
39103;DHT22;24847;48.218;16.414;2023-04-08T06:39:00;2.60;99.90
39103;DHT22;24847;48.218;16.414;2023-04-08T06:44:23;2.80;99.90
39103;DHT22;24847;48.218;16.414;2023-04-08T06:49:47;3.10;99.90
39103;DHT22;24847;48.218;16.414;2023-04-08T06:55:10;3.10;99.90
39103;DHT22;24847;48.218;16.414;2023-04-08T07:00:32;3.10;99.90
39103;DHT22;24847;48.218;16.414;2023-04-08T07:05:56;3.10;99.90
39103;DHT22;24847;48.218;16.414;2023-04-08T07:11:18;2.90;99.90
39103;DHT22;24847;48.218;16.414;2023-04-08T07:16:41;3.00;99.90
39103;DHT22;24847;48.218;16.414;2023-04-08T07:22:04;3.10;99.90
39103;DHT22;24847;48.218;16.414;2023-04-08T07:27:27;3.10;99.90
39103;DHT22;24847;48.218;16.414;2023-04-08T07:32:49;3.10;99.90
39103;DHT22;24847;48.218;16.414;2023-04-08T07:38:13;3.30;99.90
39103;DHT22;24847;48.218;16.414;2023-04-08T07:43:36;3.50;99.90
39103;DHT22;24847;48.218;16.414;2023-04-08T07:48:59;3.20;99.90
39103;DHT22;24847;48.218;16.414;2023-04-08T07:54:22;3.20;99.90
39103;DHT22;24847;48.218;16.414;2023-04-08T07:59:45;3.40;99.90
39103;DHT22;24847;48.218;16.414;2023-04-08T08:05:07;3.20;99.90
39103;DHT22;24847;48.218;16.414;2023-04-08T08:10:31;3.10;99.90
39103;DHT22;24847;48.218;16.414;2023-04-08T08:15:54;3.20;99.90
39103;DHT22;24847;48.218;16.414;2023-04-08T08:21:16;3.70;99.90
39103;DHT22;24847;48.218;16.414;2023-04-08T08:26:40;3.60;99.90
39103;DHT22;24847;48.218;16.414;2023-04-08T08:32:04;3.50;99.90
39103;DHT22;24847;48.218;16.414;2023-04-08T08:37:27;3.30;99.90
39103;DHT22;24847;48.218;16.414;2023-04-08T08:42:51;3.50;99.90
39103;DHT22;24847;48.218;16.414;2023-04-08T08:48:13;3.60;99.90
39103;DHT22;24847;48.218;16.414;2023-04-08T08:53:36;3.60;99.90
39103;DHT22;24847;48.218;16.414;2023-04-08T08:59:00;3.80;99.90
39103;DHT22;24847;48.218;16.414;2023-04-08T09:04:22;3.70;99.90
39103;DHT22;24847;48.218;16.414;2023-04-08T09:09:48;3.50;99.90
39103;DHT22;24847;48.218;16.414;2023-04-08T09:15:12;3.50;99.90
39103;DHT22;24847;48.218;16.414;2023-04-08T09:20:34;3.20;99.90
39103;DHT22;24847;48.218;16.414;2023-04-08T09:26:03;3.50;99.90
39103;DHT22;24847;48.218;16.414;2023-04-08T09:31:31;3.60;99.90
39103;DHT22;24847;48.218;16.414;2023-04-08T09:36:54;3.40;99.90
39103;DHT22;24847;48.218;16.414;2023-04-08T09:42:18;3.70;99.90
39103;DHT22;24847;48.218;16.414;2023-04-08T09:47:55;3.70;99.90
39103;DHT22;24847;48.218;16.414;2023-04-08T09:53:19;3.70;99.90
39103;DHT22;24847;48.218;16.414;2023-04-08T09:58:51;3.70;99.90
39103;DHT22;24847;48.218;16.414;2023-04-08T10:04:20;3.50;99.90
39103;DHT22;24847;48.218;16.414;2023-04-08T10:09:44;3.70;99.90
39103;DHT22;24847;48.218;16.414;2023-04-08T10:15:24;3.70;99.90
39103;DHT22;24847;48.218;16.414;2023-04-08T10:20:48;4.00;99.90
39103;DHT22;24847;48.218;16.414;2023-04-08T10:26:29;4.10;99.90
39103;DHT22;24847;48.218;16.414;2023-04-08T10:31:53;4.00;99.90
39103;DHT22;24847;48.218;16.414;2023-04-08T10:37:18;3.80;99.90
39103;DHT22;24847;48.218;16.414;2023-04-08T10:42:41;3.80;99.90
39103;DHT22;24847;48.218;16.414;2023-04-08T10:48:13;3.90;99.90
39103;DHT22;24847;48.218;16.414;2023-04-08T10:53:39;4.00;99.90
39103;DHT22;24847;48.218;16.414;2023-04-08T10:59:01;4.00;99.90
39103;DHT22;24847;48.218;16.414;2023-04-08T11:04:24;4.00;99.90
39103;DHT22;24847;48.218;16.414;2023-04-08T11:09:48;4.20;99.90
39103;DHT22;24847;48.218;16.414;2023-04-08T11:15:12;4.30;99.90
39103;DHT22;24847;48.218;16.414;2023-04-08T11:20:35;4.20;99.90
39103;DHT22;24847;48.218;16.414;2023-04-08T11:25:59;4.20;99.90
39103;DHT22;24847;48.218;16.414;2023-04-08T11:31:22;4.40;99.90
39103;DHT22;24847;48.218;16.414;2023-04-08T11:36:44;4.30;99.90
39103;DHT22;24847;48.218;16.414;2023-04-08T11:42:08;4.70;99.90
39103;DHT22;24847;48.218;16.414;2023-04-08T11:47:31;4.50;99.90
39103;DHT22;24847;48.218;16.414;2023-04-08T11:52:54;4.70;99.90
39103;DHT22;24847;48.218;16.414;2023-04-08T11:58:18;4.80;99.90
39103;DHT22;24847;48.218;16.414;2023-04-08T12:03:53;4.60;99.90
39103;DHT22;24847;48.218;16.414;2023-04-08T12:09:16;4.70;99.90
39103;DHT22;24847;48.218;16.414;2023-04-08T12:14:40;4.50;99.90
39103;DHT22;24847;48.218;16.414;2023-04-08T12:20:03;4.40;99.90
39103;DHT22;24847;48.218;16.414;2023-04-08T12:25:26;4.80;99.90
39103;DHT22;24847;48.218;16.414;2023-04-08T12:30:50;4.80;99.90
39103;DHT22;24847;48.218;16.414;2023-04-08T12:36:12;4.80;99.90
39103;DHT22;24847;48.218;16.414;2023-04-08T12:41:35;4.80;99.90
39103;DHT22;24847;48.218;16.414;2023-04-08T12:46:59;5.10;99.90
39103;DHT22;24847;48.218;16.414;2023-04-08T12:52:21;4.90;99.90
39103;DHT22;24847;48.218;16.414;2023-04-08T12:57:44;5.10;99.90
39103;DHT22;24847;48.218;16.414;2023-04-08T13:03:07;5.00;99.90
39103;DHT22;24847;48.218;16.414;2023-04-08T13:08:30;5.10;99.90
39103;DHT22;24847;48.218;16.414;2023-04-08T13:13:52;5.40;99.90
39103;DHT22;24847;48.218;16.414;2023-04-08T13:19:16;5.30;99.90
39103;DHT22;24847;48.218;16.414;2023-04-08T13:24:39;5.60;99.90
39103;DHT22;24847;48.218;16.414;2023-04-08T13:30:01;5.60;99.90
39103;DHT22;24847;48.218;16.414;2023-04-08T13:35:25;5.60;99.90
39103;DHT22;24847;48.218;16.414;2023-04-08T13:40:48;5.70;99.90
39103;DHT22;24847;48.218;16.414;2023-04-08T13:46:10;5.70;99.90
39103;DHT22;24847;48.218;16.414;2023-04-08T13:51:34;5.80;99.90
39103;DHT22;24847;48.218;16.414;2023-04-08T13:56:56;5.80;99.90
39103;DHT22;24847;48.218;16.414;2023-04-08T14:02:19;5.90;99.90
39103;DHT22;24847;48.218;16.414;2023-04-08T14:07:44;5.80;99.90
39103;DHT22;24847;48.218;16.414;2023-04-08T14:13:06;6.10;99.90
39103;DHT22;24847;48.218;16.414;2023-04-08T14:18:29;5.80;99.90
39103;DHT22;24847;48.218;16.414;2023-04-08T14:23:53;5.90;99.90
39103;DHT22;24847;48.218;16.414;2023-04-08T14:29:15;5.90;99.90
39103;DHT22;24847;48.218;16.414;2023-04-08T14:34:37;6.10;99.90
39103;DHT22;24847;48.218;16.414;2023-04-08T14:40:01;6.10;99.90
39103;DHT22;24847;48.218;16.414;2023-04-08T14:45:24;5.90;99.90
39103;DHT22;24847;48.218;16.414;2023-04-08T14:50:46;6.10;99.90
39103;DHT22;24847;48.218;16.414;2023-04-08T14:56:10;6.20;99.90
39103;DHT22;24847;48.218;16.414;2023-04-08T15:01:33;6.20;99.90
39103;DHT22;24847;48.218;16.414;2023-04-08T15:06:55;6.10;99.90
39103;DHT22;24847;48.218;16.414;2023-04-08T15:12:19;6.10;99.90
39103;DHT22;24847;48.218;16.414;2023-04-08T15:17:42;6.00;99.90
39103;DHT22;24847;48.218;16.414;2023-04-08T15:23:04;6.00;99.90
39103;DHT22;24847;48.218;16.414;2023-04-08T15:28:29;5.90;99.90
39103;DHT22;24847;48.218;16.414;2023-04-08T15:33:51;5.80;99.90
39103;DHT22;24847;48.218;16.414;2023-04-08T15:39:14;6.00;99.90
39103;DHT22;24847;48.218;16.414;2023-04-08T15:44:38;5.90;99.90
39103;DHT22;24847;48.218;16.414;2023-04-08T15:50:01;5.90;99.90
39103;DHT22;24847;48.218;16.414;2023-04-08T15:55:23;6.00;99.90
39103;DHT22;24847;48.218;16.414;2023-04-08T16:00:47;6.00;99.90
39103;DHT22;24847;48.218;16.414;2023-04-08T16:06:12;5.90;99.90
39103;DHT22;24847;48.218;16.414;2023-04-08T16:11:35;5.90;99.90
39103;DHT22;24847;48.218;16.414;2023-04-08T16:16:59;5.90;99.90
39103;DHT22;24847;48.218;16.414;2023-04-08T16:22:21;5.90;99.90
39103;DHT22;24847;48.218;16.414;2023-04-08T16:27:44;5.90;99.90
39103;DHT22;24847;48.218;16.414;2023-04-08T16:33:08;6.00;99.90
39103;DHT22;24847;48.218;16.414;2023-04-08T16:38:31;5.90;99.90
39103;DHT22;24847;48.218;16.414;2023-04-08T16:43:53;5.70;99.90
39103;DHT22;24847;48.218;16.414;2023-04-08T16:49:18;5.60;99.90
39103;DHT22;24847;48.218;16.414;2023-04-08T16:54:41;5.50;99.90
39103;DHT22;24847;48.218;16.414;2023-04-08T17:00:05;5.40;99.90
39103;DHT22;24847;48.218;16.414;2023-04-08T17:05:30;5.10;99.90
39103;DHT22;24847;48.218;16.414;2023-04-08T17:10:53;5.10;99.90
39103;DHT22;24847;48.218;16.414;2023-04-08T17:16:17;5.20;99.90
39103;DHT22;24847;48.218;16.414;2023-04-08T17:21:40;5.10;99.90
39103;DHT22;24847;48.218;16.414;2023-04-08T17:27:03;5.10;99.90
39103;DHT22;24847;48.218;16.414;2023-04-08T17:32:25;5.10;99.90
39103;DHT22;24847;48.218;16.414;2023-04-08T17:37:49;5.10;99.90
39103;DHT22;24847;48.218;16.414;2023-04-08T17:43:12;5.20;99.90
39103;DHT22;24847;48.218;16.414;2023-04-08T17:48:35;5.10;99.90
39103;DHT22;24847;48.218;16.414;2023-04-08T17:53:59;5.10;99.90
39103;DHT22;24847;48.218;16.414;2023-04-08T17:59:21;5.10;99.90
39103;DHT22;24847;48.218;16.414;2023-04-08T18:04:43;5.10;99.90
39103;DHT22;24847;48.218;16.414;2023-04-08T18:10:09;5.20;99.90
39103;DHT22;24847;48.218;16.414;2023-04-08T18:15:33;5.00;99.90
39103;DHT22;24847;48.218;16.414;2023-04-08T18:20:56;5.10;99.90
39103;DHT22;24847;48.218;16.414;2023-04-08T18:26:20;5.00;99.90
39103;DHT22;24847;48.218;16.414;2023-04-08T18:31:42;5.20;99.90
39103;DHT22;24847;48.218;16.414;2023-04-08T18:37:05;5.20;99.90
39103;DHT22;24847;48.218;16.414;2023-04-08T18:42:28;5.20;99.90
39103;DHT22;24847;48.218;16.414;2023-04-08T18:47:51;5.30;99.90
39103;DHT22;24847;48.218;16.414;2023-04-08T18:53:13;5.40;99.90
39103;DHT22;24847;48.218;16.414;2023-04-08T18:58:37;5.40;99.90
39103;DHT22;24847;48.218;16.414;2023-04-08T19:04:00;5.50;99.90
39103;DHT22;24847;48.218;16.414;2023-04-08T19:09:22;5.40;99.90
39103;DHT22;24847;48.218;16.414;2023-04-08T19:14:46;5.50;99.90
39103;DHT22;24847;48.218;16.414;2023-04-08T19:20:09;5.50;99.90
39103;DHT22;24847;48.218;16.414;2023-04-08T19:25:32;5.40;99.90
39103;DHT22;24847;48.218;16.414;2023-04-08T19:30:55;5.50;99.90
39103;DHT22;24847;48.218;16.414;2023-04-08T19:36:18;5.50;99.90
39103;DHT22;24847;48.218;16.414;2023-04-08T19:41:40;5.50;99.90
39103;DHT22;24847;48.218;16.414;2023-04-08T19:47:04;5.30;99.90
39103;DHT22;24847;48.218;16.414;2023-04-08T19:52:27;5.40;99.90
39103;DHT22;24847;48.218;16.414;2023-04-08T19:57:49;5.40;99.90
39103;DHT22;24847;48.218;16.414;2023-04-08T20:03:13;5.30;99.90
39103;DHT22;24847;48.218;16.414;2023-04-08T20:08:36;5.40;99.90
39103;DHT22;24847;48.218;16.414;2023-04-08T20:13:58;5.40;99.90
39103;DHT22;24847;48.218;16.414;2023-04-08T20:19:22;5.40;99.90
39103;DHT22;24847;48.218;16.414;2023-04-08T20:24:45;5.30;99.90
39103;DHT22;24847;48.218;16.414;2023-04-08T20:30:08;5.10;99.90
39103;DHT22;24847;48.218;16.414;2023-04-08T20:35:33;5.30;99.90
39103;DHT22;24847;48.218;16.414;2023-04-08T20:40:57;5.40;99.90
39103;DHT22;24847;48.218;16.414;2023-04-08T20:46:19;5.30;99.90
39103;DHT22;24847;48.218;16.414;2023-04-08T20:51:43;5.40;99.90
39103;DHT22;24847;48.218;16.414;2023-04-08T20:57:06;5.40;99.90
39103;DHT22;24847;48.218;16.414;2023-04-08T21:02:31;5.40;99.90
39103;DHT22;24847;48.218;16.414;2023-04-08T21:07:55;5.40;99.90
39103;DHT22;24847;48.218;16.414;2023-04-08T21:13:17;5.50;99.90
39103;DHT22;24847;48.218;16.414;2023-04-08T21:18:40;5.40;99.90
39103;DHT22;24847;48.218;16.414;2023-04-08T21:24:04;5.40;99.90
39103;DHT22;24847;48.218;16.414;2023-04-08T21:29:29;5.30;99.90
39103;DHT22;24847;48.218;16.414;2023-04-08T21:34:51;5.20;99.90
39103;DHT22;24847;48.218;16.414;2023-04-08T21:40:16;5.30;99.90
39103;DHT22;24847;48.218;16.414;2023-04-08T21:45:39;5.30;99.90
39103;DHT22;24847;48.218;16.414;2023-04-08T21:51:01;5.20;99.90
39103;DHT22;24847;48.218;16.414;2023-04-08T21:56:27;5.20;99.90
39103;DHT22;24847;48.218;16.414;2023-04-08T22:01:49;5.30;99.90
39103;DHT22;24847;48.218;16.414;2023-04-08T22:07:12;5.30;99.90
39103;DHT22;24847;48.218;16.414;2023-04-08T22:12:36;5.30;99.90
39103;DHT22;24847;48.218;16.414;2023-04-08T22:17:58;5.20;99.90
39103;DHT22;24847;48.218;16.414;2023-04-08T22:23:21;5.30;99.90
39103;DHT22;24847;48.218;16.414;2023-04-08T22:28:45;5.40;99.90
39103;DHT22;24847;48.218;16.414;2023-04-08T22:34:09;5.40;99.90
39103;DHT22;24847;48.218;16.414;2023-04-08T22:39:31;5.30;99.90
39103;DHT22;24847;48.218;16.414;2023-04-08T22:44:55;5.30;99.90
39103;DHT22;24847;48.218;16.414;2023-04-08T22:50:19;5.30;99.90
39103;DHT22;24847;48.218;16.414;2023-04-08T22:55:43;5.30;99.90
39103;DHT22;24847;48.218;16.414;2023-04-08T23:01:14;5.30;99.90
39103;DHT22;24847;48.218;16.414;2023-04-08T23:06:37;5.10;99.90
39103;DHT22;24847;48.218;16.414;2023-04-08T23:12:00;5.20;99.90
39103;DHT22;24847;48.218;16.414;2023-04-08T23:17:24;5.30;99.90
39103;DHT22;24847;48.218;16.414;2023-04-08T23:22:46;5.30;99.90
39103;DHT22;24847;48.218;16.414;2023-04-08T23:28:09;5.10;99.90
39103;DHT22;24847;48.218;16.414;2023-04-08T23:33:32;5.20;99.90
39103;DHT22;24847;48.218;16.414;2023-04-08T23:38:55;5.20;99.90
39103;DHT22;24847;48.218;16.414;2023-04-08T23:44:17;5.20;99.90
39103;DHT22;24847;48.218;16.414;2023-04-08T23:49:41;5.10;99.90
39103;DHT22;24847;48.218;16.414;2023-04-08T23:55:04;5.10;99.90
